createdAt,value
2018-05-29T00:00:48.657Z,16.50
2018-05-29T00:03:16.187Z,16.40
2018-05-29T00:05:44.452Z,16.30
2018-05-29T00:08:12.740Z,16.30
2018-05-29T00:10:41.021Z,16.20
2018-05-29T00:13:09.310Z,16.20
2018-05-29T00:15:36.841Z,16.10
2018-05-29T00:18:05.125Z,16.10
2018-05-29T00:20:33.416Z,16.10
2018-05-29T00:23:00.930Z,16.00
2018-05-29T00:25:28.450Z,16.00
2018-05-29T00:27:55.967Z,15.90
2018-05-29T00:30:24.263Z,15.80
2018-05-29T00:32:51.778Z,15.80
2018-05-29T00:35:19.298Z,15.70
2018-05-29T00:37:46.830Z,15.80
2018-05-29T00:40:15.096Z,15.70
2018-05-29T00:42:43.389Z,15.70
2018-05-29T00:45:11.652Z,15.70
2018-05-29T00:47:39.950Z,15.70
2018-05-29T00:50:07.462Z,15.60
2018-05-29T00:52:34.977Z,15.70
2018-05-29T00:55:14.458Z,15.60
2018-05-29T00:57:41.990Z,15.60
2018-05-29T01:00:09.510Z,15.50
2018-05-29T01:02:37.780Z,15.40
2018-05-29T01:05:06.072Z,15.30
2018-05-29T01:07:33.591Z,15.30
2018-05-29T01:10:01.132Z,15.30
2018-05-29T01:12:28.662Z,15.30
2018-05-29T01:14:56.198Z,15.30
2018-05-29T01:17:24.463Z,15.30
2018-05-29T01:19:52.752Z,15.30
2018-05-29T01:22:21.038Z,15.30
2018-05-29T01:24:49.342Z,15.30
2018-05-29T01:27:16.849Z,15.30
2018-05-29T01:29:45.132Z,15.40
2018-05-29T01:32:13.426Z,15.40
2018-05-29T01:34:40.944Z,15.30
2018-05-29T01:37:09.226Z,15.20
2018-05-29T01:39:36.735Z,15.20
2018-05-29T01:42:04.276Z,15.20
2018-05-29T01:44:31.790Z,15.10
2018-05-29T01:46:59.334Z,15.10
2018-05-29T01:49:26.842Z,15.00
2018-05-29T01:51:55.108Z,14.90
2018-05-29T01:54:23.399Z,14.90
2018-05-29T01:56:51.684Z,14.90
2018-05-29T01:59:19.205Z,14.90
2018-05-29T02:01:49.393Z,14.90
2018-05-29T02:04:17.001Z,14.80
2018-05-29T02:06:44.469Z,14.80
2018-05-29T02:09:12.761Z,14.70
2018-05-29T02:11:40.269Z,14.60
2018-05-29T02:14:08.566Z,14.60
2018-05-29T02:16:36.831Z,14.60
2018-05-29T02:19:05.845Z,14.50
2018-05-29T02:21:34.146Z,14.50
2018-05-29T02:24:01.649Z,14.50
2018-05-29T02:26:29.169Z,14.50
2018-05-29T02:28:56.682Z,14.40
2018-05-29T02:31:24.219Z,14.40
2018-05-29T02:33:51.743Z,14.40
2018-05-29T02:36:19.260Z,14.40
2018-05-29T02:38:46.764Z,14.40
2018-05-29T02:41:14.282Z,14.40
2018-05-29T02:43:42.586Z,14.50
2018-05-29T02:46:10.108Z,14.50
2018-05-29T02:48:38.426Z,14.60
2018-05-29T02:51:05.959Z,14.60
2018-05-29T02:53:34.254Z,14.60
2018-05-29T02:56:01.767Z,14.60
2018-05-29T02:58:29.307Z,14.60
2018-05-29T03:00:56.831Z,14.60
2018-05-29T03:03:24.371Z,14.50
2018-05-29T03:05:52.643Z,14.60
2018-05-29T03:08:20.919Z,14.70
2018-05-29T03:10:49.204Z,14.70
2018-05-29T03:13:17.481Z,14.70
2018-05-29T03:15:45.765Z,14.60
2018-05-29T03:18:13.280Z,14.60
2018-05-29T03:20:40.818Z,14.60
2018-05-29T03:23:08.338Z,14.50
2018-05-29T03:25:36.620Z,14.40
2018-05-29T03:28:04.121Z,14.30
2018-05-29T03:30:31.642Z,14.30
2018-05-29T03:32:59.170Z,14.30
2018-05-29T03:35:27.466Z,14.30
2018-05-29T03:37:55.763Z,14.20
2018-05-29T03:40:23.278Z,14.20
2018-05-29T03:42:50.810Z,14.20
2018-05-29T03:45:18.312Z,14.20
2018-05-29T03:47:46.596Z,14.30
2018-05-29T03:50:14.866Z,14.10
2018-05-29T03:52:43.156Z,14.20
2018-05-29T03:55:10.656Z,14.20
2018-05-29T03:57:38.173Z,14.30
2018-05-29T04:00:05.706Z,14.30
2018-05-29T04:02:33.980Z,14.30
2018-05-29T04:05:02.268Z,14.40
2018-05-29T04:07:30.684Z,14.30
2018-05-29T04:09:58.233Z,14.40
2018-05-29T04:12:25.742Z,14.50
2018-05-29T04:14:53.268Z,14.60
2018-05-29T04:17:20.782Z,14.60
2018-05-29T04:19:49.086Z,14.60
2018-05-29T04:22:16.606Z,14.60
2018-05-29T04:24:44.868Z,14.70
2018-05-29T04:27:12.428Z,14.70
2018-05-29T04:29:39.957Z,14.70
2018-05-29T04:32:07.509Z,14.70
2018-05-29T04:34:35.018Z,14.70
2018-05-29T04:37:03.318Z,14.80
2018-05-29T04:39:30.843Z,14.80
2018-05-29T04:41:58.373Z,14.90
2018-05-29T04:44:25.890Z,14.90
2018-05-29T04:46:53.395Z,15.10
2018-05-29T04:49:20.926Z,15.20
2018-05-29T04:51:48.445Z,15.30
2018-05-29T04:54:16.746Z,15.40
2018-05-29T04:56:44.275Z,15.40
2018-05-29T04:59:11.795Z,15.50
2018-05-29T05:01:39.314Z,15.50
2018-05-29T05:04:06.854Z,15.60
2018-05-29T05:06:34.383Z,15.70
2018-05-29T05:09:01.937Z,15.70
2018-05-29T05:11:29.479Z,15.80
2018-05-29T05:13:56.995Z,15.90
2018-05-29T05:16:25.284Z,16.10
2018-05-29T05:18:53.583Z,16.20
2018-05-29T05:21:21.154Z,16.20
2018-05-29T05:23:48.660Z,16.30
2018-05-29T05:26:16.183Z,16.50
2018-05-29T05:28:43.684Z,16.40
2018-05-29T05:31:11.976Z,16.70
2018-05-29T05:33:39.489Z,16.70
2018-05-29T05:36:07.002Z,16.80
2018-05-29T05:38:34.526Z,16.90
2018-05-29T05:41:02.036Z,17.10
2018-05-29T05:43:29.557Z,17.20
2018-05-29T05:45:57.829Z,17.50
2018-05-29T05:48:26.128Z,17.70
2018-05-29T05:50:53.675Z,17.70
2018-05-29T05:53:21.964Z,18.00
2018-05-29T05:55:49.484Z,18.00
2018-05-29T05:58:17.002Z,18.10
2018-05-29T06:00:44.534Z,18.30
2018-05-29T06:03:12.043Z,18.50
2018-05-29T06:05:39.565Z,18.60
2018-05-29T06:08:07.086Z,18.70
2018-05-29T06:10:35.380Z,18.80
2018-05-29T06:13:03.663Z,18.70
2018-05-29T06:15:31.200Z,18.70
2018-05-29T06:17:59.478Z,18.90
2018-05-29T06:20:27.862Z,19.00
2018-05-29T06:22:56.151Z,19.10
2018-05-29T06:25:23.655Z,19.10
2018-05-29T06:27:51.312Z,19.30
2018-05-29T06:30:18.838Z,19.50
2018-05-29T06:32:46.366Z,19.50
2018-05-29T06:35:14.650Z,19.50
2018-05-29T06:37:42.952Z,19.70
2018-05-29T06:40:10.465Z,19.60
2018-05-29T06:42:37.980Z,19.60
2018-05-29T06:45:05.553Z,19.50
2018-05-29T06:47:33.024Z,19.50
2018-05-29T06:50:00.620Z,19.80
2018-05-29T06:52:28.933Z,20.10
2018-05-29T06:54:56.450Z,20.10
2018-05-29T06:57:24.734Z,20.50
2018-05-29T06:59:53.034Z,20.50
2018-05-29T07:02:20.538Z,20.50
2018-05-29T07:04:48.066Z,20.20
2018-05-29T07:07:15.569Z,20.40
2018-05-29T07:09:43.124Z,20.50
2018-05-29T07:12:10.642Z,20.70
2018-05-29T07:14:38.185Z,20.80
2018-05-29T07:17:06.458Z,20.80
2018-05-29T07:19:33.957Z,20.80
2018-05-29T07:22:01.495Z,20.90
2018-05-29T07:24:29.007Z,20.80
2018-05-29T07:26:57.310Z,20.80
2018-05-29T07:29:24.820Z,20.70
2018-05-29T07:31:52.359Z,20.70
2018-05-29T07:34:19.882Z,20.90
2018-05-29T07:36:47.400Z,21.00
2018-05-29T07:39:14.925Z,20.90
2018-05-29T07:41:42.429Z,21.00
2018-05-29T07:44:10.716Z,21.40
2018-05-29T07:46:38.993Z,21.30
2018-05-29T07:49:07.296Z,21.50
2018-05-29T07:51:34.825Z,21.50
2018-05-29T07:54:03.136Z,21.70
2018-05-29T07:56:30.657Z,21.70
2018-05-29T07:58:58.945Z,21.90
2018-05-29T08:01:27.221Z,21.70
2018-05-29T08:03:55.501Z,21.80
2018-05-29T08:06:23.061Z,21.80
2018-05-29T08:08:50.546Z,21.90
2018-05-29T08:11:18.073Z,22.00
2018-05-29T08:13:46.352Z,22.00
2018-05-29T08:16:14.660Z,22.00
2018-05-29T08:18:42.173Z,22.00
2018-05-29T08:21:09.701Z,22.30
2018-05-29T08:23:37.214Z,22.20
2018-05-29T08:26:04.731Z,22.60
2018-05-29T08:28:32.269Z,23.00
2018-05-29T08:30:59.804Z,23.50
2018-05-29T08:33:27.343Z,24.00
2018-05-29T08:35:55.633Z,26.00
2018-05-29T08:38:23.171Z,25.90
2018-05-29T08:40:51.458Z,27.70
2018-05-29T08:43:18.988Z,27.60
2018-05-29T08:45:46.508Z,27.90
2018-05-29T08:48:14.032Z,27.80
2018-05-29T08:50:41.550Z,28.30
2018-05-29T08:53:09.048Z,27.80
2018-05-29T08:55:37.332Z,29.50
2018-05-29T08:58:04.845Z,29.40
2018-05-29T09:00:32.383Z,30.00
2018-05-29T09:02:59.898Z,29.70
2018-05-29T09:05:27.532Z,29.70
2018-05-29T09:07:55.051Z,29.70
2018-05-29T09:10:22.577Z,29.40
2018-05-29T09:12:50.097Z,29.20
2018-05-29T09:15:17.625Z,29.30
2018-05-29T09:17:45.159Z,29.10
2018-05-29T09:20:12.674Z,28.70
2018-05-29T09:22:40.206Z,28.60
2018-05-29T09:25:07.730Z,28.20
2018-05-29T09:27:36.019Z,28.00
2018-05-29T09:30:03.522Z,28.00
2018-05-29T09:32:31.051Z,28.00
2018-05-29T09:34:58.552Z,28.10
2018-05-29T09:37:26.144Z,28.10
2018-05-29T09:39:53.630Z,28.20
2018-05-29T09:42:21.154Z,28.60
2018-05-29T09:44:49.473Z,28.80
2018-05-29T09:47:16.984Z,28.70
2018-05-29T09:49:45.268Z,28.80
2018-05-29T09:52:13.536Z,29.10
2018-05-29T09:54:41.820Z,29.10
2018-05-29T09:57:10.100Z,28.90
2018-05-29T09:59:37.624Z,28.80
2018-05-29T10:02:05.143Z,29.20
2018-05-29T10:04:32.648Z,28.80
2018-05-29T10:07:00.211Z,29.50
2018-05-29T10:09:27.717Z,30.30
2018-05-29T10:11:55.243Z,30.80
2018-05-29T10:14:23.527Z,31.00
2018-05-29T10:16:51.058Z,30.90
2018-05-29T10:19:18.609Z,30.60
2018-05-29T10:21:46.122Z,30.90
2018-05-29T10:24:13.628Z,30.70
2018-05-29T10:26:41.168Z,30.70
2018-05-29T10:29:08.690Z,30.20
2018-05-29T10:31:36.266Z,30.30
2018-05-29T10:34:03.804Z,30.00
2018-05-29T10:36:31.315Z,29.80
2018-05-29T10:38:58.838Z,29.60
2018-05-29T10:41:26.340Z,29.50
2018-05-29T10:43:53.866Z,29.50
2018-05-29T10:46:21.378Z,29.40
2018-05-29T10:48:49.682Z,29.30
2018-05-29T10:51:17.231Z,29.30
2018-05-29T10:53:44.739Z,29.00
2018-05-29T10:56:12.265Z,29.00
2018-05-29T10:58:39.773Z,28.90
2018-05-29T11:01:07.316Z,28.90
2018-05-29T11:03:34.820Z,28.60
2018-05-29T11:06:02.341Z,28.20
2018-05-29T11:08:29.857Z,28.30
2018-05-29T11:10:57.380Z,28.30
2018-05-29T11:13:25.663Z,28.30
2018-05-29T11:15:53.948Z,28.30
2018-05-29T11:18:21.457Z,28.30
2018-05-29T11:20:48.967Z,28.30
2018-05-29T11:23:16.498Z,28.10
2018-05-29T11:25:44.780Z,27.90
2018-05-29T11:28:13.809Z,27.80
2018-05-29T11:30:41.334Z,27.80
2018-05-29T11:33:09.624Z,27.80
2018-05-29T11:35:37.901Z,27.80
2018-05-29T11:38:06.231Z,27.90
2018-05-29T11:40:33.742Z,27.90
2018-05-29T11:43:01.249Z,27.80
2018-05-29T11:45:28.789Z,27.50
2018-05-29T11:47:56.288Z,27.40
2018-05-29T11:50:23.830Z,27.60
2018-05-29T11:52:51.337Z,27.90
2018-05-29T11:55:18.915Z,28.00
2018-05-29T11:57:46.438Z,28.20
2018-05-29T12:00:14.733Z,28.60
2018-05-29T12:02:42.254Z,28.60
2018-05-29T12:05:09.785Z,28.60
2018-05-29T12:07:37.310Z,29.30
2018-05-29T12:10:04.828Z,29.60
2018-05-29T12:12:32.344Z,29.80
2018-05-29T12:14:59.844Z,29.90
2018-05-29T12:17:27.360Z,30.50
2018-05-29T12:19:54.882Z,30.80
2018-05-29T12:22:23.205Z,31.50
2018-05-29T12:24:50.732Z,31.40
2018-05-29T12:27:18.290Z,32.20
2018-05-29T12:29:46.570Z,32.60
2018-05-29T12:32:14.095Z,32.60
2018-05-29T12:34:41.629Z,32.70
2018-05-29T12:37:09.146Z,33.00
2018-05-29T12:39:36.690Z,33.30
2018-05-29T12:42:04.982Z,33.60
2018-05-29T12:44:32.513Z,33.60
2018-05-29T12:47:00.801Z,34.00
2018-05-29T12:49:29.111Z,33.90
2018-05-29T12:51:56.618Z,33.90
2018-05-29T12:54:24.151Z,34.10
2018-05-29T12:56:51.661Z,34.30
2018-05-29T12:59:19.176Z,33.60
2018-05-29T13:01:46.812Z,34.00
2018-05-29T13:04:14.334Z,34.10
2018-05-29T13:06:42.713Z,34.60
2018-05-29T13:09:10.982Z,34.70
2018-05-29T13:11:39.290Z,34.90
2018-05-29T13:14:06.793Z,34.90
2018-05-29T13:16:35.855Z,35.20
2018-05-29T13:19:03.411Z,35.20
2018-05-29T13:21:30.963Z,35.40
2018-05-29T13:23:58.485Z,35.90
2018-05-29T13:26:26.756Z,36.40
2018-05-29T13:28:55.081Z,36.10
2018-05-29T13:31:22.672Z,36.00
2018-05-29T13:33:50.231Z,36.70
2018-05-29T13:36:18.004Z,36.20
2018-05-29T13:38:45.590Z,36.60
2018-05-29T13:41:13.875Z,37.00
2018-05-29T13:43:41.405Z,37.00
2018-05-29T13:46:09.715Z,36.50
2018-05-29T13:48:37.239Z,36.50
2018-05-29T13:51:04.782Z,36.10
2018-05-29T13:53:32.288Z,35.90
2018-05-29T13:55:59.816Z,35.70
2018-05-29T13:58:27.343Z,36.20
2018-05-29T14:00:54.994Z,36.50
2018-05-29T14:03:22.613Z,35.90
2018-05-29T14:05:50.123Z,36.30
2018-05-29T14:08:17.646Z,37.30
2018-05-29T14:10:45.179Z,37.80
2018-05-29T14:13:12.738Z,38.40
2018-05-29T14:15:40.271Z,38.70
2018-05-29T14:18:07.793Z,38.50
2018-05-29T14:20:35.296Z,39.00
2018-05-29T14:23:02.843Z,39.40
2018-05-29T14:25:30.344Z,39.70
2018-05-29T14:27:58.650Z,39.30
2018-05-29T14:30:26.183Z,39.20
2018-05-29T14:32:54.466Z,39.40
2018-05-29T14:35:22.004Z,39.40
2018-05-29T14:37:49.527Z,39.90
2018-05-29T14:40:17.070Z,39.00
2018-05-29T14:42:44.586Z,39.50
2018-05-29T14:45:12.876Z,38.10
2018-05-29T14:47:41.154Z,37.10
2018-05-29T14:50:08.680Z,37.10
2018-05-29T14:52:36.203Z,36.20
2018-05-29T14:55:03.729Z,35.60
2018-05-29T14:57:31.251Z,35.00
2018-05-29T14:59:58.756Z,34.80
2018-05-29T15:02:26.279Z,34.40
2018-05-29T15:04:53.794Z,33.50
2018-05-29T15:07:21.317Z,33.40
2018-05-29T15:09:49.598Z,32.40
2018-05-29T15:12:17.893Z,32.20
2018-05-29T15:14:45.422Z,32.20
2018-05-29T15:17:13.730Z,31.30
2018-05-29T15:19:41.245Z,31.30
2018-05-29T15:22:08.767Z,31.20
2018-05-29T15:24:36.315Z,31.10
2018-05-29T15:27:03.842Z,31.00
2018-05-29T15:29:32.132Z,30.40
2018-05-29T15:31:59.650Z,30.30
2018-05-29T15:34:27.179Z,30.40
2018-05-29T15:36:54.689Z,30.20
2018-05-29T15:39:22.984Z,29.60
2018-05-29T15:41:50.488Z,29.60
2018-05-29T15:44:18.035Z,29.20
2018-05-29T15:46:45.535Z,28.70
2018-05-29T15:49:13.832Z,28.70
2018-05-29T15:51:41.356Z,28.60
2018-05-29T15:54:08.856Z,28.70
2018-05-29T15:56:36.391Z,28.80
2018-05-29T15:59:04.661Z,28.70
2018-05-29T16:01:32.948Z,28.70
2018-05-29T16:04:01.221Z,28.70
2018-05-29T16:06:29.531Z,28.80
2018-05-29T16:08:57.037Z,28.80
2018-05-29T16:11:24.541Z,28.70
2018-05-29T16:13:52.060Z,28.60
2018-05-29T16:16:19.560Z,28.40
2018-05-29T16:18:47.090Z,28.50
2018-05-29T16:21:15.370Z,28.10
2018-05-29T16:23:43.781Z,28.40
2018-05-29T16:26:11.299Z,28.30
2018-05-29T16:28:39.596Z,28.30
2018-05-29T16:31:07.120Z,28.30
2018-05-29T16:33:34.662Z,28.20
2018-05-29T16:36:02.181Z,28.10
2018-05-29T16:38:29.699Z,27.90
2018-05-29T16:40:57.233Z,27.80
2018-05-29T16:43:24.740Z,27.80
2018-05-29T16:45:53.027Z,27.60
2018-05-29T16:48:20.556Z,27.60
2018-05-29T16:50:48.077Z,27.30
2018-05-29T16:53:15.584Z,27.20
2018-05-29T16:55:43.891Z,27.00
2018-05-29T16:58:11.512Z,27.00
2018-05-29T17:00:39.794Z,26.80
2018-05-29T17:03:08.088Z,26.70
2018-05-29T17:05:35.596Z,26.70
2018-05-29T17:08:03.112Z,26.70
2018-05-29T17:10:30.622Z,26.60
2018-05-29T17:12:59.660Z,26.60
2018-05-29T17:15:27.209Z,26.60
2018-05-29T17:17:54.718Z,26.40
2018-05-29T17:20:22.236Z,26.20
2018-05-29T17:22:49.750Z,26.30
2018-05-29T17:25:18.046Z,26.40
2018-05-29T17:27:46.341Z,26.40
2018-05-29T17:30:13.868Z,26.40
2018-05-29T17:32:42.203Z,26.20
2018-05-29T17:35:09.730Z,26.20
2018-05-29T17:37:38.023Z,26.20
2018-05-29T17:40:05.559Z,26.20
2018-05-29T17:42:33.836Z,26.10
2018-05-29T17:45:02.149Z,26.00
2018-05-29T17:47:29.669Z,26.00
2018-05-29T17:49:57.945Z,25.80
2018-05-29T17:52:26.249Z,25.60
2018-05-29T17:54:53.774Z,25.60
2018-05-29T17:57:22.056Z,25.50
2018-05-29T17:59:50.335Z,25.40
2018-05-29T18:02:18.631Z,25.30
2018-05-29T18:04:46.166Z,25.30
2018-05-29T18:07:14.463Z,25.20
2018-05-29T18:09:41.964Z,25.20
2018-05-29T18:12:09.486Z,25.10
2018-05-29T18:14:37.017Z,25.00
2018-05-29T18:17:05.293Z,24.80
2018-05-29T18:19:33.583Z,24.70
2018-05-29T18:22:01.862Z,24.70
2018-05-29T18:24:30.154Z,24.60
2018-05-29T18:26:57.683Z,24.60
2018-05-29T18:29:25.972Z,24.50
2018-05-29T18:31:54.248Z,24.50
2018-05-29T18:34:22.550Z,24.40
2018-05-29T18:36:50.067Z,24.50
2018-05-29T18:39:18.341Z,24.40
2018-05-29T18:41:45.863Z,24.40
2018-05-29T18:44:13.369Z,24.40
2018-05-29T18:46:41.658Z,24.30
2018-05-29T18:49:09.188Z,24.20
2018-05-29T18:51:36.718Z,24.20
2018-05-29T18:54:04.223Z,24.10
2018-05-29T18:56:32.528Z,24.10
2018-05-29T18:59:00.051Z,24.10
2018-05-29T19:01:28.374Z,24.00
2018-05-29T19:03:55.906Z,24.00
2018-05-29T19:06:23.417Z,23.70
2018-05-29T19:08:50.941Z,23.50
2018-05-29T19:11:18.452Z,23.30
2018-05-29T19:13:45.980Z,23.20
2018-05-29T19:16:13.497Z,23.20
2018-05-29T19:18:41.026Z,23.20
2018-05-29T19:21:08.545Z,22.90
2018-05-29T19:23:36.087Z,22.80
2018-05-29T19:26:03.616Z,22.60
2018-05-29T19:28:31.900Z,22.40
2018-05-29T19:31:00.198Z,22.40
2018-05-29T19:33:27.713Z,22.30
2018-05-29T19:35:55.255Z,21.70
2018-05-29T19:38:22.778Z,21.60
2018-05-29T19:40:50.306Z,21.30
2018-05-29T19:43:18.597Z,20.20
2018-05-29T19:45:46.135Z,20.20
2018-05-29T19:48:14.455Z,20.10
2018-05-29T19:50:42.000Z,20.00
2018-05-29T19:53:09.522Z,19.60
2018-05-29T19:55:37.049Z,19.30
2018-05-29T19:58:04.568Z,19.10
2018-05-29T20:00:32.069Z,19.10
2018-05-29T20:02:59.604Z,19.10
2018-05-29T20:05:27.117Z,19.10
2018-05-29T20:07:54.640Z,19.20
2018-05-29T20:10:22.159Z,19.30
2018-05-29T20:12:49.739Z,19.20
2018-05-29T20:15:17.259Z,19.00
2018-05-29T20:17:45.537Z,19.10
2018-05-29T20:20:13.830Z,19.20
2018-05-29T20:22:41.350Z,19.20
2018-05-29T20:25:08.885Z,19.20
2018-05-29T20:27:36.396Z,19.20
2018-05-29T20:30:04.695Z,19.10
2018-05-29T20:32:32.219Z,19.10
2018-05-29T20:35:00.530Z,18.80
2018-05-29T20:37:28.040Z,18.80
2018-05-29T20:39:55.579Z,18.60
2018-05-29T20:42:23.098Z,18.50
2018-05-29T20:44:50.613Z,18.50
2018-05-29T20:47:18.149Z,18.50
2018-05-29T20:49:45.670Z,18.40
2018-05-29T20:52:13.197Z,18.40
2018-05-29T20:54:40.704Z,18.40
2018-05-29T20:57:08.238Z,18.40
2018-05-29T20:59:37.239Z,17.90
2018-05-29T21:02:04.771Z,17.90
2018-05-29T21:04:33.137Z,18.20
2018-05-29T21:07:01.944Z,18.10
2018-05-29T21:09:31.850Z,18.30
2018-05-29T21:12:04.981Z,18.20
2018-05-29T21:14:35.201Z,18.30
2018-05-29T21:17:05.401Z,18.10
2018-05-29T21:19:33.789Z,18.10
2018-05-29T21:22:01.288Z,18.00
2018-05-29T21:24:28.808Z,18.10
2018-05-29T21:26:56.316Z,18.10
2018-05-29T21:29:23.850Z,18.20
2018-05-29T21:31:51.478Z,18.20
2018-05-29T21:34:19.760Z,18.30
2018-05-29T21:36:47.294Z,18.30
2018-05-29T21:39:14.805Z,18.40
2018-05-29T21:41:42.338Z,18.30
2018-05-29T21:44:09.858Z,18.30
2018-05-29T21:46:37.426Z,18.40
2018-05-29T21:49:04.942Z,18.30
2018-05-29T21:51:32.480Z,18.20
2018-05-29T21:53:59.994Z,18.20
2018-05-29T21:56:27.515Z,18.20
2018-05-29T21:58:55.045Z,18.20
2018-05-29T22:01:22.569Z,18.20
2018-05-29T22:03:50.092Z,18.20
2018-05-29T22:06:17.592Z,18.20
2018-05-29T22:08:45.120Z,18.20
2018-05-29T22:11:12.618Z,18.20
2018-05-29T22:13:40.911Z,18.20
2018-05-29T22:16:09.187Z,18.20
2018-05-29T22:18:37.496Z,18.20
2018-05-29T22:21:05.097Z,18.20
2018-05-29T22:23:32.601Z,18.20
2018-05-29T22:26:00.140Z,18.10
2018-05-29T22:28:28.427Z,17.90
2018-05-29T22:30:56.693Z,17.80
2018-05-29T22:33:24.989Z,17.60
2018-05-29T22:35:52.500Z,17.60
2018-05-29T22:38:20.020Z,17.70
2018-05-29T22:40:47.558Z,17.70
2018-05-29T22:43:15.086Z,17.80
2018-05-29T22:45:42.602Z,17.90
2018-05-29T22:48:10.144Z,18.00
2018-05-29T22:50:37.644Z,18.00
2018-05-29T22:53:05.163Z,18.00
2018-05-29T22:55:32.707Z,18.00
2018-05-29T22:58:00.227Z,17.90
2018-05-29T23:00:27.748Z,17.90
2018-05-29T23:02:55.290Z,17.80
2018-05-29T23:05:22.797Z,17.80
2018-05-29T23:07:50.316Z,17.90
2018-05-29T23:10:17.865Z,17.80
2018-05-29T23:12:45.376Z,17.80
2018-05-29T23:15:12.894Z,17.90
2018-05-29T23:17:40.434Z,17.90
2018-05-29T23:20:07.958Z,18.00
2018-05-29T23:22:35.472Z,18.00
2018-05-29T23:25:03.005Z,18.00
2018-05-29T23:27:30.529Z,18.00
2018-05-29T23:29:58.034Z,17.90
2018-05-29T23:32:25.577Z,17.90
2018-05-29T23:34:53.854Z,17.90
2018-05-29T23:37:21.357Z,17.90
2018-05-29T23:39:48.885Z,18.00
2018-05-29T23:42:16.392Z,18.00
2018-05-29T23:44:43.897Z,18.00
2018-05-29T23:47:11.429Z,18.00
2018-05-29T23:49:39.714Z,18.00
2018-05-29T23:52:07.983Z,17.90
2018-05-29T23:54:36.276Z,17.90
2018-05-29T23:57:04.548Z,18.00
2018-05-29T23:59:32.835Z,18.00
